SYRK1: Arkansas R at Syracuse, KS

                                SHEF ID:       SYRK1     ARKANSAS R AT SYRACUSE, KS
STATION TYPE:
Regulating: Stage = 10.00, Flow = 2000

PRECIP STAGE RIV-FLOW BAT-LOAD
in ft cfs volt
Ccp-Rev Ccp-Rev Ccp-Rev Ccp-Rev
(America/Chicago)
07/17 00:00 0.04 5.17 226 12.65
07/17 01:00 0.00 5.18 228 12.65
07/17 02:00 0.00 5.19 229 12.60
07/17 03:00 0.00 5.21 233 12.60
07/17 04:00 0.00 5.21 233 12.60
07/17 05:00 0.00 5.24 238 12.54
07/17 06:00 0.00 5.26 241 12.54
07/17 07:00 0.00 5.28 245 12.54
07/17 08:00 0.01 5.31 250 12.54
07/17 09:00 0.00 5.33 253 12.60
07/17 10:00 0.00 5.36 258 12.95
07/17 11:00 0.00 5.35 257 13.48
07/17 12:00 0.00 5.36 258 13.48
07/17 13:00 0.00 5.36 258 13.48
07/17 14:00 0.00 5.36 258 13.42
07/17 15:00 0.00 5.38 262 13.36
07/17 16:00 0.00 5.38 262 13.30
07/17 17:00 0.00 5.38 262 13.30
07/17 18:00 0.00 5.38 262 13.24
07/17 19:00 0.01 5.39 264 12.89
07/17 20:00 0.15 5.40 266 12.71
07/17 21:00 0.06 5.42 269 12.89
07/17 22:00 0.00 5.41 267 12.65
07/17 23:00 ---- ---- ---- ----
Data processed at Thu 18Jul2024 04:28 GMT

Parsing this webpage?

Checkout our new Data API! CWMSDataAPI (CDA)

Timeseries IDs (TSIDs)

TSIDs used from left to right in the data table
SYRA.Precip-Inc.Total.1Hour.1Hour.Ccp-Rev
SYRA.Stage.Inst.1Hour.0.Ccp-Rev
SYRA.Flow.Inst.1Hour.0.Ccp-Rev
SYRA.Volt-Battery Load.Inst.1Hour.0.Ccp-Rev

                            

All information presented herein is the property of the government of the United States of America and may be revised or deleted at any time without prior notice. Dissemination of this information without the expressed written consent of the Public Affairs Office, Tulsa District U.S. Army Corps of Engineers is strictly prohibited. These data are gathered electronically and, as presented, have NOT undergone any form of quality control. These data are NOT guaranteed to be valid or correct.